sensor_id;sensor_type;location;lat;lon;timestamp;P1;durP1;ratioP1;P2;durP2;ratioP2
11677;SDS011;5895;41.950;24.372;2023-08-12T00:00:44;3.63;;;3.33;;
11677;SDS011;5895;41.950;24.372;2023-08-12T00:03:11;5.18;;;3.38;;
11677;SDS011;5895;41.950;24.372;2023-08-12T00:05:38;3.67;;;3.38;;
11677;SDS011;5895;41.950;24.372;2023-08-12T00:08:08;3.58;;;3.28;;
11677;SDS011;5895;41.950;24.372;2023-08-12T00:10:37;3.28;;;3.08;;
11677;SDS011;5895;41.950;24.372;2023-08-12T00:13:04;3.90;;;3.08;;
11677;SDS011;5895;41.950;24.372;2023-08-12T00:15:31;3.80;;;3.38;;
11677;SDS011;5895;41.950;24.372;2023-08-12T00:17:59;3.03;;;2.83;;
11677;SDS011;5895;41.950;24.372;2023-08-12T00:20:29;4.80;;;3.10;;
11677;SDS011;5895;41.950;24.372;2023-08-12T00:22:56;3.33;;;3.00;;
11677;SDS011;5895;41.950;24.372;2023-08-12T00:25:24;3.38;;;2.85;;
11677;SDS011;5895;41.950;24.372;2023-08-12T00:27:53;3.40;;;3.10;;
11677;SDS011;5895;41.950;24.372;2023-08-12T00:30:20;3.42;;;3.13;;
11677;SDS011;5895;41.950;24.372;2023-08-12T00:32:48;2.90;;;2.70;;
11677;SDS011;5895;41.950;24.372;2023-08-12T00:35:15;3.15;;;2.95;;
11677;SDS011;5895;41.950;24.372;2023-08-12T00:37:42;4.18;;;2.92;;
11677;SDS011;5895;41.950;24.372;2023-08-12T00:40:10;3.20;;;2.90;;
11677;SDS011;5895;41.950;24.372;2023-08-12T00:42:38;4.45;;;2.90;;
11677;SDS011;5895;41.950;24.372;2023-08-12T00:45:07;3.10;;;2.90;;
11677;SDS011;5895;41.950;24.372;2023-08-12T00:47:38;4.55;;;2.85;;
11677;SDS011;5895;41.950;24.372;2023-08-12T00:50:06;3.17;;;2.90;;
11677;SDS011;5895;41.950;24.372;2023-08-12T00:52:37;3.30;;;3.00;;
11677;SDS011;5895;41.950;24.372;2023-08-12T00:55:05;3.00;;;2.80;;
11677;SDS011;5895;41.950;24.372;2023-08-12T00:57:33;3.03;;;2.83;;
11677;SDS011;5895;41.950;24.372;2023-08-12T01:00:01;4.13;;;3.03;;
11677;SDS011;5895;41.950;24.372;2023-08-12T01:02:31;3.28;;;3.00;;
11677;SDS011;5895;41.950;24.372;2023-08-12T01:04:58;3.80;;;2.40;;
11677;SDS011;5895;41.950;24.372;2023-08-12T01:07:25;3.03;;;2.83;;
11677;SDS011;5895;41.950;24.372;2023-08-12T01:09:53;3.33;;;3.03;;
11677;SDS011;5895;41.950;24.372;2023-08-12T01:12:22;3.85;;;2.58;;
11677;SDS011;5895;41.950;24.372;2023-08-12T01:14:56;3.15;;;2.95;;
11677;SDS011;5895;41.950;24.372;2023-08-12T01:17:28;3.05;;;2.85;;
11677;SDS011;5895;41.950;24.372;2023-08-12T01:19:58;3.28;;;2.80;;
11677;SDS011;5895;41.950;24.372;2023-08-12T01:22:27;3.35;;;3.00;;
11677;SDS011;5895;41.950;24.372;2023-08-12T01:24:59;3.20;;;2.90;;
11677;SDS011;5895;41.950;24.372;2023-08-12T01:27:26;5.20;;;3.10;;
11677;SDS011;5895;41.950;24.372;2023-08-12T01:29:53;4.90;;;3.15;;
11677;SDS011;5895;41.950;24.372;2023-08-12T01:32:22;3.40;;;2.78;;
11677;SDS011;5895;41.950;24.372;2023-08-12T01:34:58;3.97;;;2.90;;
11677;SDS011;5895;41.950;24.372;2023-08-12T01:37:33;4.55;;;2.80;;
11677;SDS011;5895;41.950;24.372;2023-08-12T01:40:04;5.22;;;2.97;;
11677;SDS011;5895;41.950;24.372;2023-08-12T01:42:34;3.28;;;3.03;;
11677;SDS011;5895;41.950;24.372;2023-08-12T01:45:02;3.05;;;2.83;;
11677;SDS011;5895;41.950;24.372;2023-08-12T01:47:31;3.00;;;2.80;;
11677;SDS011;5895;41.950;24.372;2023-08-12T01:49:58;3.05;;;2.75;;
11677;SDS011;5895;41.950;24.372;2023-08-12T01:52:26;3.08;;;2.60;;
11677;SDS011;5895;41.950;24.372;2023-08-12T01:54:54;3.92;;;2.70;;
11677;SDS011;5895;41.950;24.372;2023-08-12T01:57:23;3.13;;;2.90;;
11677;SDS011;5895;41.950;24.372;2023-08-12T01:59:50;3.05;;;2.75;;
11677;SDS011;5895;41.950;24.372;2023-08-12T02:02:18;2.58;;;2.40;;
11677;SDS011;5895;41.950;24.372;2023-08-12T02:04:45;2.80;;;2.60;;
11677;SDS011;5895;41.950;24.372;2023-08-12T02:07:12;3.33;;;3.00;;
11677;SDS011;5895;41.950;24.372;2023-08-12T02:09:40;3.10;;;2.90;;
11677;SDS011;5895;41.950;24.372;2023-08-12T02:12:07;3.10;;;2.90;;
11677;SDS011;5895;41.950;24.372;2023-08-12T02:14:36;3.90;;;2.83;;
11677;SDS011;5895;41.950;24.372;2023-08-12T02:17:03;3.25;;;2.85;;
11677;SDS011;5895;41.950;24.372;2023-08-12T02:19:31;3.10;;;2.80;;
11677;SDS011;5895;41.950;24.372;2023-08-12T02:21:59;3.85;;;3.13;;
11677;SDS011;5895;41.950;24.372;2023-08-12T02:24:26;3.15;;;2.88;;
11677;SDS011;5895;41.950;24.372;2023-08-12T02:26:54;2.78;;;2.58;;
11677;SDS011;5895;41.950;24.372;2023-08-12T02:29:21;3.33;;;3.03;;
11677;SDS011;5895;41.950;24.372;2023-08-12T02:31:50;3.60;;;2.80;;
11677;SDS011;5895;41.950;24.372;2023-08-12T02:34:17;4.60;;;2.95;;
11677;SDS011;5895;41.950;24.372;2023-08-12T02:36:44;3.28;;;2.90;;
11677;SDS011;5895;41.950;24.372;2023-08-12T02:39:12;2.88;;;2.67;;
11677;SDS011;5895;41.950;24.372;2023-08-12T02:41:39;3.50;;;3.20;;
11677;SDS011;5895;41.950;24.372;2023-08-12T02:44:06;3.03;;;2.83;;
11677;SDS011;5895;41.950;24.372;2023-08-12T02:46:33;3.20;;;3.00;;
11677;SDS011;5895;41.950;24.372;2023-08-12T02:49:02;5.70;;;3.10;;
11677;SDS011;5895;41.950;24.372;2023-08-12T02:51:30;3.20;;;2.80;;
11677;SDS011;5895;41.950;24.372;2023-08-12T02:53:57;3.05;;;2.85;;
11677;SDS011;5895;41.950;24.372;2023-08-12T02:56:24;2.80;;;2.60;;
11677;SDS011;5895;41.950;24.372;2023-08-12T02:58:52;3.40;;;3.10;;
11677;SDS011;5895;41.950;24.372;2023-08-12T03:01:19;3.20;;;3.00;;
11677;SDS011;5895;41.950;24.372;2023-08-12T03:03:47;3.17;;;2.88;;
11677;SDS011;5895;41.950;24.372;2023-08-12T03:06:15;4.00;;;3.03;;
11677;SDS011;5895;41.950;24.372;2023-08-12T03:08:43;3.17;;;2.90;;
11677;SDS011;5895;41.950;24.372;2023-08-12T03:11:10;4.53;;;2.80;;
11677;SDS011;5895;41.950;24.372;2023-08-12T03:13:37;3.20;;;2.90;;
11677;SDS011;5895;41.950;24.372;2023-08-12T03:16:08;3.45;;;2.85;;
11677;SDS011;5895;41.950;24.372;2023-08-12T03:18:38;2.85;;;2.65;;
11677;SDS011;5895;41.950;24.372;2023-08-12T03:21:06;3.47;;;2.97;;
11677;SDS011;5895;41.950;24.372;2023-08-12T03:23:35;3.38;;;2.78;;
11677;SDS011;5895;41.950;24.372;2023-08-12T03:26:04;3.33;;;3.03;;
11677;SDS011;5895;41.950;24.372;2023-08-12T03:28:31;3.15;;;2.85;;
11677;SDS011;5895;41.950;24.372;2023-08-12T03:30:58;3.25;;;2.90;;
11677;SDS011;5895;41.950;24.372;2023-08-12T03:33:26;3.42;;;3.13;;
11677;SDS011;5895;41.950;24.372;2023-08-12T03:35:53;3.05;;;2.80;;
11677;SDS011;5895;41.950;24.372;2023-08-12T03:38:20;2.60;;;2.40;;
11677;SDS011;5895;41.950;24.372;2023-08-12T03:40:49;4.60;;;3.10;;
11677;SDS011;5895;41.950;24.372;2023-08-12T03:43:17;3.05;;;2.80;;
11677;SDS011;5895;41.950;24.372;2023-08-12T03:45:44;3.13;;;2.83;;
11677;SDS011;5895;41.950;24.372;2023-08-12T03:48:11;4.28;;;3.45;;
11677;SDS011;5895;41.950;24.372;2023-08-12T03:50:39;2.90;;;2.70;;
11677;SDS011;5895;41.950;24.372;2023-08-12T03:53:07;3.55;;;2.63;;
11677;SDS011;5895;41.950;24.372;2023-08-12T03:55:35;3.95;;;2.85;;
11677;SDS011;5895;41.950;24.372;2023-08-12T03:58:04;5.53;;;3.05;;
11677;SDS011;5895;41.950;24.372;2023-08-12T04:00:31;3.55;;;2.92;;
11677;SDS011;5895;41.950;24.372;2023-08-12T04:02:58;2.80;;;2.60;;
11677;SDS011;5895;41.950;24.372;2023-08-12T04:05:26;3.22;;;2.92;;
11677;SDS011;5895;41.950;24.372;2023-08-12T04:07:53;2.95;;;2.70;;
11677;SDS011;5895;41.950;24.372;2023-08-12T04:10:20;4.07;;;3.10;;
11677;SDS011;5895;41.950;24.372;2023-08-12T04:12:48;3.63;;;3.33;;
11677;SDS011;5895;41.950;24.372;2023-08-12T04:15:17;4.60;;;2.88;;
11677;SDS011;5895;41.950;24.372;2023-08-12T04:17:44;2.90;;;2.70;;
11677;SDS011;5895;41.950;24.372;2023-08-12T04:20:11;4.28;;;3.22;;
11677;SDS011;5895;41.950;24.372;2023-08-12T04:22:39;3.10;;;2.90;;
11677;SDS011;5895;41.950;24.372;2023-08-12T04:25:06;3.42;;;2.95;;
11677;SDS011;5895;41.950;24.372;2023-08-12T04:27:34;3.35;;;3.10;;
11677;SDS011;5895;41.950;24.372;2023-08-12T04:30:01;3.35;;;3.05;;
11677;SDS011;5895;41.950;24.372;2023-08-12T04:32:31;3.28;;;3.00;;
11677;SDS011;5895;41.950;24.372;2023-08-12T04:34:58;3.22;;;3.03;;
11677;SDS011;5895;41.950;24.372;2023-08-12T04:37:25;3.33;;;3.13;;
11677;SDS011;5895;41.950;24.372;2023-08-12T04:39:54;3.67;;;3.38;;
11677;SDS011;5895;41.950;24.372;2023-08-12T04:42:21;3.60;;;3.30;;
11677;SDS011;5895;41.950;24.372;2023-08-12T04:44:48;3.45;;;3.15;;
11677;SDS011;5895;41.950;24.372;2023-08-12T04:47:16;3.70;;;3.40;;
11677;SDS011;5895;41.950;24.372;2023-08-12T04:49:45;3.15;;;2.95;;
11677;SDS011;5895;41.950;24.372;2023-08-12T04:52:12;3.85;;;3.13;;
11677;SDS011;5895;41.950;24.372;2023-08-12T04:54:40;3.28;;;3.00;;
11677;SDS011;5895;41.950;24.372;2023-08-12T04:57:08;3.50;;;3.20;;
11677;SDS011;5895;41.950;24.372;2023-08-12T04:59:35;3.65;;;3.00;;
11677;SDS011;5895;41.950;24.372;2023-08-12T05:02:02;7.40;;;3.30;;
11677;SDS011;5895;41.950;24.372;2023-08-12T05:04:30;3.22;;;3.00;;
11677;SDS011;5895;41.950;24.372;2023-08-12T05:06:59;3.35;;;3.15;;
11677;SDS011;5895;41.950;24.372;2023-08-12T05:09:26;3.97;;;3.58;;
11677;SDS011;5895;41.950;24.372;2023-08-12T05:11:54;3.72;;;3.20;;
11677;SDS011;5895;41.950;24.372;2023-08-12T05:14:21;3.70;;;3.40;;
11677;SDS011;5895;41.950;24.372;2023-08-12T05:16:48;3.78;;;3.05;;
11677;SDS011;5895;41.950;24.372;2023-08-12T05:19:16;3.58;;;3.28;;
11677;SDS011;5895;41.950;24.372;2023-08-12T05:21:43;3.75;;;3.15;;
11677;SDS011;5895;41.950;24.372;2023-08-12T05:24:12;3.55;;;3.13;;
11677;SDS011;5895;41.950;24.372;2023-08-12T05:26:40;3.42;;;3.05;;
11677;SDS011;5895;41.950;24.372;2023-08-12T05:29:08;4.43;;;3.17;;
11677;SDS011;5895;41.950;24.372;2023-08-12T05:31:35;3.85;;;3.47;;
11677;SDS011;5895;41.950;24.372;2023-08-12T05:34:03;8.50;;;7.55;;
11677;SDS011;5895;41.950;24.372;2023-08-12T05:36:30;12.23;;;11.13;;
11677;SDS011;5895;41.950;24.372;2023-08-12T05:38:58;24.35;;;13.15;;
11677;SDS011;5895;41.950;24.372;2023-08-12T05:41:27;15.75;;;10.10;;
11677;SDS011;5895;41.950;24.372;2023-08-12T05:43:55;13.77;;;10.60;;
11677;SDS011;5895;41.950;24.372;2023-08-12T05:46:22;11.55;;;10.23;;
11677;SDS011;5895;41.950;24.372;2023-08-12T05:48:49;9.30;;;8.48;;
11677;SDS011;5895;41.950;24.372;2023-08-12T05:51:17;9.63;;;7.97;;
11677;SDS011;5895;41.950;24.372;2023-08-12T05:53:44;8.93;;;8.13;;
11677;SDS011;5895;41.950;24.372;2023-08-12T05:56:12;10.93;;;9.90;;
11677;SDS011;5895;41.950;24.372;2023-08-12T05:58:41;10.60;;;9.10;;
11677;SDS011;5895;41.950;24.372;2023-08-12T06:01:10;12.10;;;9.00;;
11677;SDS011;5895;41.950;24.372;2023-08-12T06:03:38;8.75;;;7.82;;
11677;SDS011;5895;41.950;24.372;2023-08-12T06:06:05;8.38;;;7.30;;
11677;SDS011;5895;41.950;24.372;2023-08-12T06:08:32;9.77;;;8.77;;
11677;SDS011;5895;41.950;24.372;2023-08-12T06:11:00;9.07;;;8.27;;
11677;SDS011;5895;41.950;24.372;2023-08-12T06:13:27;9.77;;;8.18;;
11677;SDS011;5895;41.950;24.372;2023-08-12T06:15:57;11.07;;;8.60;;
11677;SDS011;5895;41.950;24.372;2023-08-12T06:18:24;9.93;;;8.55;;
11677;SDS011;5895;41.950;24.372;2023-08-12T06:20:51;9.20;;;7.82;;
11677;SDS011;5895;41.950;24.372;2023-08-12T06:23:19;8.10;;;7.40;;
11677;SDS011;5895;41.950;24.372;2023-08-12T06:25:46;8.65;;;6.63;;
11677;SDS011;5895;41.950;24.372;2023-08-12T06:28:14;8.02;;;7.20;;
11677;SDS011;5895;41.950;24.372;2023-08-12T06:30:44;11.27;;;7.90;;
11677;SDS011;5895;41.950;24.372;2023-08-12T06:33:14;9.50;;;7.05;;
11677;SDS011;5895;41.950;24.372;2023-08-12T06:35:42;7.22;;;6.53;;
11677;SDS011;5895;41.950;24.372;2023-08-12T06:38:10;8.73;;;7.25;;
11677;SDS011;5895;41.950;24.372;2023-08-12T06:40:38;7.85;;;6.78;;
11677;SDS011;5895;41.950;24.372;2023-08-12T06:43:06;6.45;;;5.03;;
11677;SDS011;5895;41.950;24.372;2023-08-12T06:45:34;6.22;;;4.28;;
11677;SDS011;5895;41.950;24.372;2023-08-12T06:48:01;4.30;;;3.90;;
11677;SDS011;5895;41.950;24.372;2023-08-12T06:50:30;4.75;;;4.35;;
11677;SDS011;5895;41.950;24.372;2023-08-12T06:52:58;6.13;;;4.65;;
11677;SDS011;5895;41.950;24.372;2023-08-12T06:55:26;9.30;;;5.70;;
11677;SDS011;5895;41.950;24.372;2023-08-12T06:57:53;4.43;;;4.00;;
11677;SDS011;5895;41.950;24.372;2023-08-12T07:00:20;4.93;;;4.30;;
11677;SDS011;5895;41.950;24.372;2023-08-12T07:02:48;4.30;;;3.90;;
11677;SDS011;5895;41.950;24.372;2023-08-12T07:05:15;5.90;;;3.90;;
11677;SDS011;5895;41.950;24.372;2023-08-12T07:07:44;3.95;;;3.55;;
11677;SDS011;5895;41.950;24.372;2023-08-12T07:10:12;3.78;;;3.47;;
11677;SDS011;5895;41.950;24.372;2023-08-12T07:12:39;4.25;;;3.50;;
11677;SDS011;5895;41.950;24.372;2023-08-12T07:15:07;6.38;;;4.80;;
11677;SDS011;5895;41.950;24.372;2023-08-12T07:17:36;8.30;;;4.03;;
11677;SDS011;5895;41.950;24.372;2023-08-12T07:20:03;3.83;;;3.30;;
11677;SDS011;5895;41.950;24.372;2023-08-12T07:22:32;4.03;;;3.63;;
11677;SDS011;5895;41.950;24.372;2023-08-12T07:25:01;4.25;;;3.85;;
11677;SDS011;5895;41.950;24.372;2023-08-12T07:27:29;3.50;;;2.97;;
11677;SDS011;5895;41.950;24.372;2023-08-12T07:29:56;5.25;;;2.95;;
11677;SDS011;5895;41.950;24.372;2023-08-12T07:32:23;4.75;;;3.20;;
11677;SDS011;5895;41.950;24.372;2023-08-12T07:34:51;16.40;;;3.67;;
11677;SDS011;5895;41.950;24.372;2023-08-12T07:37:18;3.28;;;2.45;;
11677;SDS011;5895;41.950;24.372;2023-08-12T07:39:46;4.68;;;3.22;;
11677;SDS011;5895;41.950;24.372;2023-08-12T07:42:15;2.88;;;2.53;;
11677;SDS011;5895;41.950;24.372;2023-08-12T07:44:43;3.22;;;2.50;;
11677;SDS011;5895;41.950;24.372;2023-08-12T07:47:10;2.85;;;2.65;;
11677;SDS011;5895;41.950;24.372;2023-08-12T07:49:37;3.20;;;2.67;;
11677;SDS011;5895;41.950;24.372;2023-08-12T07:52:05;4.28;;;3.88;;
11677;SDS011;5895;41.950;24.372;2023-08-12T07:54:33;10.43;;;3.97;;
11677;SDS011;5895;41.950;24.372;2023-08-12T07:57:01;5.22;;;2.88;;
11677;SDS011;5895;41.950;24.372;2023-08-12T07:59:30;14.43;;;2.90;;
11677;SDS011;5895;41.950;24.372;2023-08-12T08:01:57;4.20;;;2.55;;
11677;SDS011;5895;41.950;24.372;2023-08-12T08:04:25;2.78;;;2.58;;
11677;SDS011;5895;41.950;24.372;2023-08-12T08:06:53;3.85;;;2.40;;
11677;SDS011;5895;41.950;24.372;2023-08-12T08:09:20;5.53;;;2.50;;
11677;SDS011;5895;41.950;24.372;2023-08-12T08:11:48;3.53;;;2.40;;
11677;SDS011;5895;41.950;24.372;2023-08-12T08:14:15;3.08;;;2.67;;
11677;SDS011;5895;41.950;24.372;2023-08-12T08:16:44;5.20;;;2.35;;
11677;SDS011;5895;41.950;24.372;2023-08-12T08:19:11;5.47;;;2.30;;
11677;SDS011;5895;41.950;24.372;2023-08-12T08:21:39;8.05;;;2.80;;
11677;SDS011;5895;41.950;24.372;2023-08-12T08:24:06;3.97;;;2.55;;
11677;SDS011;5895;41.950;24.372;2023-08-12T08:26:36;2.88;;;2.67;;
11677;SDS011;5895;41.950;24.372;2023-08-12T08:29:04;6.00;;;2.40;;
11677;SDS011;5895;41.950;24.372;2023-08-12T08:31:31;5.10;;;2.80;;
11677;SDS011;5895;41.950;24.372;2023-08-12T08:34:00;3.60;;;2.60;;
11677;SDS011;5895;41.950;24.372;2023-08-12T08:36:28;4.32;;;2.78;;
11677;SDS011;5895;41.950;24.372;2023-08-12T08:38:55;6.28;;;2.50;;
11677;SDS011;5895;41.950;24.372;2023-08-12T08:41:23;8.27;;;2.78;;
11677;SDS011;5895;41.950;24.372;2023-08-12T08:43:52;3.75;;;2.55;;
11677;SDS011;5895;41.950;24.372;2023-08-12T08:46:27;2.50;;;2.30;;
11677;SDS011;5895;41.950;24.372;2023-08-12T08:48:57;2.40;;;2.20;;
11677;SDS011;5895;41.950;24.372;2023-08-12T08:51:27;3.15;;;2.38;;
11677;SDS011;5895;41.950;24.372;2023-08-12T08:53:57;2.28;;;2.08;;
11677;SDS011;5895;41.950;24.372;2023-08-12T08:56:25;4.47;;;2.38;;
11677;SDS011;5895;41.950;24.372;2023-08-12T08:58:52;2.40;;;2.20;;
11677;SDS011;5895;41.950;24.372;2023-08-12T09:01:20;6.93;;;2.53;;
11677;SDS011;5895;41.950;24.372;2023-08-12T09:03:48;2.85;;;2.42;;
11677;SDS011;5895;41.950;24.372;2023-08-12T09:06:20;3.00;;;2.70;;
11677;SDS011;5895;41.950;24.372;2023-08-12T09:08:49;2.83;;;2.55;;
11677;SDS011;5895;41.950;24.372;2023-08-12T09:11:18;7.72;;;2.60;;
11677;SDS011;5895;41.950;24.372;2023-08-12T09:13:47;3.72;;;2.60;;
11677;SDS011;5895;41.950;24.372;2023-08-12T09:16:14;4.00;;;2.63;;
11677;SDS011;5895;41.950;24.372;2023-08-12T09:18:42;2.78;;;2.55;;
11677;SDS011;5895;41.950;24.372;2023-08-12T09:21:10;2.95;;;2.60;;
11677;SDS011;5895;41.950;24.372;2023-08-12T09:23:40;3.88;;;2.80;;
11677;SDS011;5895;41.950;24.372;2023-08-12T09:26:13;4.13;;;2.70;;
11677;SDS011;5895;41.950;24.372;2023-08-12T09:28:41;3.60;;;2.70;;
11677;SDS011;5895;41.950;24.372;2023-08-12T09:31:11;8.15;;;3.00;;
11677;SDS011;5895;41.950;24.372;2023-08-12T09:33:49;3.45;;;3.15;;
11677;SDS011;5895;41.950;24.372;2023-08-12T09:36:17;2.88;;;2.40;;
11677;SDS011;5895;41.950;24.372;2023-08-12T09:38:46;3.45;;;2.33;;
11677;SDS011;5895;41.950;24.372;2023-08-12T09:41:14;2.88;;;2.22;;
11677;SDS011;5895;41.950;24.372;2023-08-12T09:43:42;7.32;;;2.78;;
11677;SDS011;5895;41.950;24.372;2023-08-12T09:46:10;2.85;;;2.17;;
11677;SDS011;5895;41.950;24.372;2023-08-12T09:48:40;3.67;;;3.00;;
11677;SDS011;5895;41.950;24.372;2023-08-12T09:51:07;2.80;;;2.50;;
11677;SDS011;5895;41.950;24.372;2023-08-12T09:53:36;3.13;;;2.38;;
11677;SDS011;5895;41.950;24.372;2023-08-12T09:56:06;7.40;;;4.75;;
11677;SDS011;5895;41.950;24.372;2023-08-12T09:58:35;3.08;;;2.78;;
11677;SDS011;5895;41.950;24.372;2023-08-12T10:01:03;7.38;;;5.43;;
11677;SDS011;5895;41.950;24.372;2023-08-12T10:03:32;4.40;;;4.00;;
11677;SDS011;5895;41.950;24.372;2023-08-12T10:06:01;4.35;;;3.92;;
11677;SDS011;5895;41.950;24.372;2023-08-12T10:08:29;7.10;;;3.75;;
11677;SDS011;5895;41.950;24.372;2023-08-12T10:10:58;3.85;;;3.45;;
11677;SDS011;5895;41.950;24.372;2023-08-12T10:13:27;3.78;;;2.60;;
11677;SDS011;5895;41.950;24.372;2023-08-12T10:15:55;7.45;;;5.28;;
11677;SDS011;5895;41.950;24.372;2023-08-12T10:18:22;2.80;;;2.50;;
11677;SDS011;5895;41.950;24.372;2023-08-12T10:20:52;5.22;;;4.13;;
11677;SDS011;5895;41.950;24.372;2023-08-12T10:23:24;6.75;;;3.65;;
11677;SDS011;5895;41.950;24.372;2023-08-12T10:25:53;3.50;;;3.20;;
11677;SDS011;5895;41.950;24.372;2023-08-12T10:28:21;3.28;;;2.67;;
11677;SDS011;5895;41.950;24.372;2023-08-12T10:30:50;3.97;;;3.67;;
11677;SDS011;5895;41.950;24.372;2023-08-12T10:33:19;11.10;;;9.95;;
11677;SDS011;5895;41.950;24.372;2023-08-12T10:35:47;4.20;;;3.80;;
11677;SDS011;5895;41.950;24.372;2023-08-12T10:38:17;4.32;;;3.47;;
11677;SDS011;5895;41.950;24.372;2023-08-12T10:40:45;3.13;;;2.60;;
11677;SDS011;5895;41.950;24.372;2023-08-12T10:43:13;12.18;;;9.70;;
11677;SDS011;5895;41.950;24.372;2023-08-12T10:45:42;3.35;;;3.05;;
11677;SDS011;5895;41.950;24.372;2023-08-12T10:48:18;4.50;;;2.80;;
11677;SDS011;5895;41.950;24.372;2023-08-12T10:50:52;2.75;;;2.53;;
11677;SDS011;5895;41.950;24.372;2023-08-12T10:53:22;29.25;;;20.23;;
11677;SDS011;5895;41.950;24.372;2023-08-12T10:55:57;16.33;;;13.27;;
11677;SDS011;5895;41.950;24.372;2023-08-12T10:58:29;4.97;;;2.28;;
11677;SDS011;5895;41.950;24.372;2023-08-12T11:01:00;3.30;;;3.00;;
11677;SDS011;5895;41.950;24.372;2023-08-12T11:03:33;8.52;;;3.25;;
11677;SDS011;5895;41.950;24.372;2023-08-12T11:06:02;3.30;;;2.67;;
11677;SDS011;5895;41.950;24.372;2023-08-12T11:08:29;9.32;;;7.97;;
11677;SDS011;5895;41.950;24.372;2023-08-12T11:10:57;2.03;;;1.88;;
11677;SDS011;5895;41.950;24.372;2023-08-12T11:13:28;2.60;;;2.40;;
11677;SDS011;5895;41.950;24.372;2023-08-12T11:16:05;8.77;;;5.43;;
11677;SDS011;5895;41.950;24.372;2023-08-12T11:18:34;8.98;;;2.70;;
11677;SDS011;5895;41.950;24.372;2023-08-12T11:21:02;5.88;;;5.00;;
11677;SDS011;5895;41.950;24.372;2023-08-12T11:23:30;3.80;;;3.10;;
11677;SDS011;5895;41.950;24.372;2023-08-12T11:25:58;2.90;;;2.22;;
11677;SDS011;5895;41.950;24.372;2023-08-12T11:28:27;4.63;;;2.58;;
11677;SDS011;5895;41.950;24.372;2023-08-12T11:30:55;6.43;;;5.45;;
11677;SDS011;5895;41.950;24.372;2023-08-12T11:33:23;13.18;;;6.25;;
11677;SDS011;5895;41.950;24.372;2023-08-12T11:35:52;4.85;;;3.70;;
11677;SDS011;5895;41.950;24.372;2023-08-12T11:38:20;3.20;;;2.55;;
11677;SDS011;5895;41.950;24.372;2023-08-12T11:40:48;4.93;;;2.30;;
11677;SDS011;5895;41.950;24.372;2023-08-12T11:43:20;7.40;;;4.85;;
11677;SDS011;5895;41.950;24.372;2023-08-12T11:45:48;6.22;;;3.38;;
11677;SDS011;5895;41.950;24.372;2023-08-12T11:48:15;6.95;;;3.47;;
11677;SDS011;5895;41.950;24.372;2023-08-12T11:50:44;2.60;;;2.40;;
11677;SDS011;5895;41.950;24.372;2023-08-12T11:53:13;8.90;;;5.60;;
11677;SDS011;5895;41.950;24.372;2023-08-12T11:55:41;4.10;;;3.50;;
11677;SDS011;5895;41.950;24.372;2023-08-12T11:58:09;5.85;;;4.40;;
11677;SDS011;5895;41.950;24.372;2023-08-12T12:00:44;6.78;;;5.07;;
11677;SDS011;5895;41.950;24.372;2023-08-12T12:03:13;3.30;;;3.00;;
11677;SDS011;5895;41.950;24.372;2023-08-12T12:05:45;5.00;;;2.38;;
11677;SDS011;5895;41.950;24.372;2023-08-12T12:08:15;5.07;;;2.88;;
11677;SDS011;5895;41.950;24.372;2023-08-12T12:10:42;6.93;;;3.40;;
11677;SDS011;5895;41.950;24.372;2023-08-12T12:13:10;4.00;;;3.13;;
11677;SDS011;5895;41.950;24.372;2023-08-12T12:15:41;8.15;;;4.40;;
11677;SDS011;5895;41.950;24.372;2023-08-12T12:18:09;6.88;;;4.32;;
11677;SDS011;5895;41.950;24.372;2023-08-12T12:20:41;5.45;;;4.22;;
11677;SDS011;5895;41.950;24.372;2023-08-12T12:23:21;7.05;;;3.90;;
11677;SDS011;5895;41.950;24.372;2023-08-12T12:25:49;4.55;;;2.55;;
11677;SDS011;5895;41.950;24.372;2023-08-12T12:28:24;4.53;;;3.30;;
11677;SDS011;5895;41.950;24.372;2023-08-12T12:30:52;4.55;;;3.13;;
11677;SDS011;5895;41.950;24.372;2023-08-12T12:33:19;6.97;;;2.83;;
11677;SDS011;5895;41.950;24.372;2023-08-12T12:35:47;9.85;;;3.35;;
11677;SDS011;5895;41.950;24.372;2023-08-12T12:38:15;3.85;;;2.20;;
11677;SDS011;5895;41.950;24.372;2023-08-12T12:40:43;10.23;;;3.42;;
11677;SDS011;5895;41.950;24.372;2023-08-12T12:43:11;2.40;;;2.00;;
11677;SDS011;5895;41.950;24.372;2023-08-12T12:45:38;4.32;;;2.75;;
11677;SDS011;5895;41.950;24.372;2023-08-12T12:48:07;2.10;;;2.00;;
11677;SDS011;5895;41.950;24.372;2023-08-12T12:50:35;2.55;;;2.13;;
11677;SDS011;5895;41.950;24.372;2023-08-12T12:53:03;3.97;;;2.72;;
11677;SDS011;5895;41.950;24.372;2023-08-12T12:55:31;3.78;;;2.10;;
11677;SDS011;5895;41.950;24.372;2023-08-12T12:58:00;2.10;;;1.90;;
11677;SDS011;5895;41.950;24.372;2023-08-12T13:00:27;2.85;;;2.45;;
11677;SDS011;5895;41.950;24.372;2023-08-12T13:02:55;5.80;;;3.35;;
11677;SDS011;5895;41.950;24.372;2023-08-12T13:05:22;2.40;;;1.98;;
11677;SDS011;5895;41.950;24.372;2023-08-12T13:07:50;2.22;;;2.03;;
11677;SDS011;5895;41.950;24.372;2023-08-12T13:10:18;10.38;;;3.03;;
11677;SDS011;5895;41.950;24.372;2023-08-12T13:12:45;9.95;;;2.30;;
11677;SDS011;5895;41.950;24.372;2023-08-12T13:15:15;3.05;;;2.28;;
11677;SDS011;5895;41.950;24.372;2023-08-12T13:17:42;2.30;;;2.10;;
11677;SDS011;5895;41.950;24.372;2023-08-12T13:20:10;4.35;;;2.78;;
11677;SDS011;5895;41.950;24.372;2023-08-12T13:22:38;5.05;;;2.30;;
11677;SDS011;5895;41.950;24.372;2023-08-12T13:25:07;3.55;;;2.53;;
11677;SDS011;5895;41.950;24.372;2023-08-12T13:27:35;2.78;;;2.22;;
11677;SDS011;5895;41.950;24.372;2023-08-12T13:30:04;5.38;;;2.15;;
11677;SDS011;5895;41.950;24.372;2023-08-12T13:32:34;2.97;;;2.50;;
11677;SDS011;5895;41.950;24.372;2023-08-12T13:35:01;3.05;;;2.22;;
11677;SDS011;5895;41.950;24.372;2023-08-12T13:37:29;3.97;;;2.28;;
11677;SDS011;5895;41.950;24.372;2023-08-12T13:39:56;2.83;;;2.45;;
11677;SDS011;5895;41.950;24.372;2023-08-12T13:42:24;2.28;;;2.00;;
11677;SDS011;5895;41.950;24.372;2023-08-12T13:44:51;6.20;;;3.58;;
11677;SDS011;5895;41.950;24.372;2023-08-12T13:47:19;6.03;;;3.60;;
11677;SDS011;5895;41.950;24.372;2023-08-12T13:49:48;25.63;;;10.68;;
11677;SDS011;5895;41.950;24.372;2023-08-12T13:52:15;16.80;;;7.97;;
11677;SDS011;5895;41.950;24.372;2023-08-12T13:54:43;14.13;;;7.22;;
11677;SDS011;5895;41.950;24.372;2023-08-12T13:57:10;9.20;;;5.78;;
11677;SDS011;5895;41.950;24.372;2023-08-12T13:59:38;24.38;;;11.40;;
11677;SDS011;5895;41.950;24.372;2023-08-12T14:02:06;7.43;;;4.80;;
11677;SDS011;5895;41.950;24.372;2023-08-12T14:04:33;10.35;;;5.97;;
11677;SDS011;5895;41.950;24.372;2023-08-12T14:07:02;17.17;;;7.53;;
11677;SDS011;5895;41.950;24.372;2023-08-12T14:09:30;7.13;;;4.60;;
11677;SDS011;5895;41.950;24.372;2023-08-12T14:11:58;14.10;;;5.65;;
11677;SDS011;5895;41.950;24.372;2023-08-12T14:14:26;10.20;;;4.72;;
11677;SDS011;5895;41.950;24.372;2023-08-12T14:16:53;4.68;;;3.63;;
11677;SDS011;5895;41.950;24.372;2023-08-12T14:19:21;16.05;;;6.65;;
11677;SDS011;5895;41.950;24.372;2023-08-12T14:21:48;5.47;;;3.47;;
11677;SDS011;5895;41.950;24.372;2023-08-12T14:24:17;3.60;;;2.80;;
11677;SDS011;5895;41.950;24.372;2023-08-12T14:26:45;5.63;;;2.63;;
11677;SDS011;5895;41.950;24.372;2023-08-12T14:29:12;6.07;;;4.22;;
11677;SDS011;5895;41.950;24.372;2023-08-12T14:31:40;3.90;;;3.30;;
11677;SDS011;5895;41.950;24.372;2023-08-12T14:34:07;3.10;;;2.45;;
11677;SDS011;5895;41.950;24.372;2023-08-12T14:36:34;6.68;;;4.35;;
11677;SDS011;5895;41.950;24.372;2023-08-12T14:39:02;6.60;;;4.60;;
11677;SDS011;5895;41.950;24.372;2023-08-12T14:41:31;5.38;;;4.00;;
11677;SDS011;5895;41.950;24.372;2023-08-12T14:43:59;8.02;;;5.13;;
11677;SDS011;5895;41.950;24.372;2023-08-12T14:46:26;8.45;;;4.70;;
11677;SDS011;5895;41.950;24.372;2023-08-12T14:48:53;5.47;;;3.33;;
11677;SDS011;5895;41.950;24.372;2023-08-12T14:51:22;4.30;;;2.90;;